Time;durP1;ratioP1;P1;durP2;ratioP2;P2;SDS_P1;SDS_P2;PMS_P1;PMS_P2;Temp;Humidity;BMP_temperature;BMP_pressure;BME280_temperature;BME280_humidity;BME280_pressure;Samples;Min_cycle;Max_cycle;Signal;HPM_P1;HPM_P2
2021/03/03 00:02:25;;;;;;;238.60;101.40;;;;;;;1.59;77.41;100248.77;258216;1111;23097;-71
2021/03/03 00:07:28;;;;;;;264.43;105.43;;;;;;;1.54;77.22;100252.00;258224;1112;23046;-72
2021/03/03 00:12:30;;;;;;;267.53;107.47;;;;;;;1.50;77.09;100244.66;258213;1111;23186;-72
2021/03/03 00:17:32;;;;;;;280.93;109.00;;;;;;;1.47;77.83;100234.45;258169;1112;23046;-72
2021/03/03 00:22:34;;;;;;;298.03;117.17;;;;;;;1.43;77.89;100241.97;258368;1111;23046;-72
2021/03/03 00:27:36;;;;;;;256.53;103.43;;;;;;;1.35;77.80;100227.06;258409;1110;23161;-72
2021/03/03 00:32:49;;;;;;;265.35;105.70;;;;;;;1.34;78.03;100229.91;258160;1110;23200;-71
2021/03/03 00:37:52;;;;;;;267.60;106.57;;;;;;;1.35;78.24;100226.27;258235;1111;23040;-72
2021/03/03 00:42:54;;;;;;;240.50;97.77;;;;;;;1.32;77.98;100222.17;258176;1111;23052;-72
2021/03/03 00:47:56;;;;;;;233.47;92.90;;;;;;;1.28;78.50;100223.56;258354;1110;23024;-73
2021/03/03 00:52:59;;;;;;;204.70;84.43;;;;;;;1.27;77.88;100223.76;258186;1111;23037;-72
2021/03/03 00:58:03;;;;;;;258.57;103.17;;;;;;;1.22;78.25;100212.95;258182;1110;23028;-72
2021/03/03 01:03:19;;;;;;;212.77;87.37;;;;;;;1.17;78.50;100211.70;258358;1111;26501;-72
2021/03/03 01:08:26;;;;;;;180.20;75.00;;;;;;;1.18;78.38;100208.05;258238;1111;23458;-72
2021/03/03 01:13:28;;;;;;;155.60;65.33;;;;;;;1.20;79.24;100197.30;258382;1111;23107;-74
2021/03/03 01:18:31;;;;;;;152.83;62.97;;;;;;;1.26;79.17;100206.28;258222;1112;23032;-71
2021/03/03 01:23:33;;;;;;;152.95;63.35;;;;;;;1.29;79.45;100200.64;258246;1110;23029;-72
2021/03/03 01:28:36;;;;;;;155.50;63.43;;;;;;;1.28;78.83;100193.72;258329;1111;22990;-72
2021/03/03 01:33:38;;;;;;;147.35;64.60;;;;;;;1.27;79.33;100192.08;258256;1110;23026;-72
2021/03/03 01:38:40;;;;;;;145.67;60.13;;;;;;;1.29;79.05;100185.60;258169;1111;23030;-72
2021/03/03 01:43:42;;;;;;;144.73;62.00;;;;;;;1.31;78.84;100180.93;258136;1111;23083;-72
2021/03/03 01:48:44;;;;;;;134.73;54.97;;;;;;;1.30;79.05;100175.84;258193;1112;23367;-71
2021/03/03 01:53:47;;;;;;;127.25;55.20;;;;;;;1.29;79.50;100177.68;258422;1111;23244;-73
2021/03/03 01:58:49;;;;;;;141.60;58.97;;;;;;;1.31;79.87;100164.28;258152;1112;23045;-73
2021/03/03 02:03:54;;;;;;;138.23;57.50;;;;;;;1.30;78.93;100157.36;258220;1112;23102;-71
2021/03/03 02:09:08;;;;;;;122.53;54.40;;;;;;;1.26;78.87;100150.84;258204;1111;26450;-73
2021/03/03 02:14:16;;;;;;;125.60;53.67;;;;;;;1.24;79.00;100145.75;258345;1112;23468;-71
2021/03/03 02:19:23;;;;;;;128.23;54.33;;;;;;;1.23;79.44;100149.39;258522;1110;23258;-72
2021/03/03 02:24:29;;;;;;;107.53;48.43;;;;;;;1.21;78.97;100145.34;258273;1111;26105;-72
2021/03/03 02:29:31;;;;;;;106.50;46.00;;;;;;;1.19;79.81;100137.62;258408;1110;23520;-72
2021/03/03 02:34:33;;;;;;;109.77;47.80;;;;;;;1.21;79.21;100147.98;258212;1110;23305;-72
2021/03/03 02:39:36;;;;;;;96.63;44.53;;;;;;;1.21;79.78;100137.42;258233;1112;23441;-72
2021/03/03 02:44:40;;;;;;;109.20;45.40;;;;;;;1.20;78.97;100131.31;258291;1112;26412;-72
2021/03/03 02:49:43;;;;;;;105.35;44.25;;;;;;;1.14;79.72;100130.26;258239;1111;23943;-72
2021/03/03 02:54:46;;;;;;;145.85;57.65;;;;;;;1.12;79.45;100127.01;258359;1112;26425;-72
2021/03/03 02:59:55;;;;;;;152.55;60.70;;;;;;;1.10;79.04;100131.65;258204;1112;27813;-72
2021/03/03 03:04:58;;;;;;;155.37;61.90;;;;;;;1.02;79.55;100137.06;258186;1111;23092;-72
2021/03/03 03:10:03;;;;;;;145.60;56.35;;;;;;;0.92;79.38;100131.32;258171;1112;23043;-71
2021/03/03 03:15:07;;;;;;;130.57;56.03;;;;;;;0.84;79.04;100135.73;258344;1110;23289;-71
2021/03/03 03:20:10;;;;;;;142.15;60.70;;;;;;;0.78;78.82;100133.03;258221;1111;23063;-71
2021/03/03 03:25:14;;;;;;;140.00;57.67;;;;;;;0.67;79.70;100129.08;258168;1111;23234;-71
2021/03/03 03:30:18;;;;;;;124.93;55.67;;;;;;;0.61;79.73;100124.58;258296;1112;23109;-71
2021/03/03 03:35:20;;;;;;;119.87;50.67;;;;;;;0.59;79.94;100126.58;258177;1110;27397;-72
2021/03/03 03:40:22;;;;;;;116.90;49.00;;;;;;;0.59;79.23;100127.41;258196;1110;23212;-72
2021/03/03 03:45:27;;;;;;;118.10;50.37;;;;;;;0.58;79.82;100117.86;258531;1112;23037;-72
2021/03/03 03:50:30;;;;;;;114.03;47.50;;;;;;;0.57;79.46;100120.69;258554;1111;26073;-72
2021/03/03 03:55:34;;;;;;;116.80;50.57;;;;;;;0.56;79.73;100117.25;258145;1111;23142;-73
2021/03/03 04:00:37;;;;;;;116.80;49.63;;;;;;;0.57;80.45;100112.78;258368;1110;23382;-72
2021/03/03 04:05:39;;;;;;;105.77;44.90;;;;;;;0.55;80.61;100115.61;258247;1111;23032;-73
2021/03/03 04:10:41;;;;;;;95.70;43.73;;;;;;;0.53;80.21;100114.96;258266;1110;23059;-72
2021/03/03 04:15:44;;;;;;;96.70;44.47;;;;;;;0.55;80.43;100114.80;258157;1110;23042;-71
2021/03/03 04:20:48;;;;;;;103.10;44.13;;;;;;;0.60;80.63;100115.03;258338;1111;23084;-72
2021/03/03 04:25:50;;;;;;;95.40;41.30;;;;;;;0.58;81.04;100104.67;258284;1111;23131;-72
2021/03/03 04:30:53;;;;;;;98.50;43.83;;;;;;;0.56;80.65;100105.86;258180;1112;23079;-71
2021/03/03 04:35:55;;;;;;;105.80;44.67;;;;;;;0.51;79.87;100094.06;258219;1111;23083;-72
2021/03/03 04:40:58;;;;;;;108.83;44.60;;;;;;;0.50;80.41;100096.89;258128;1112;23013;-72
2021/03/03 04:46:00;;;;;;;112.47;45.60;;;;;;;0.50;79.98;100092.45;258172;1112;23116;-72
2021/03/03 04:51:02;;;;;;;103.10;45.30;;;;;;;0.45;80.25;100080.84;258140;1112;23609;-71
2021/03/03 04:56:04;;;;;;;103.40;46.00;;;;;;;0.43;80.15;100081.00;258226;1111;23367;-72
2021/03/03 05:01:06;;;;;;;106.90;43.77;;;;;;;0.42;80.05;100089.11;258158;1112;25935;-73
2021/03/03 05:06:11;;;;;;;99.63;42.83;;;;;;;0.36;79.73;100081.97;258135;1110;23177;-72
2021/03/03 05:11:13;;;;;;;98.60;42.47;;;;;;;0.31;80.06;100079.91;258173;1110;23112;-72
2021/03/03 05:16:15;;;;;;;102.03;43.40;;;;;;;0.30;80.90;100071.16;258219;1111;23366;-73
2021/03/03 05:21:18;;;;;;;107.55;45.70;;;;;;;0.33;81.02;100072.61;258385;1110;23037;-72
2021/03/03 05:26:20;;;;;;;103.03;42.90;;;;;;;0.32;80.80;100076.24;258427;1112;23069;-72
2021/03/03 05:31:22;;;;;;;101.53;44.60;;;;;;;0.29;80.06;100076.62;258266;1112;23188;-72
2021/03/03 05:36:34;;;;;;;115.17;47.87;;;;;;;0.33;80.87;100069.98;258180;1111;23055;-72
2021/03/03 05:41:36;;;;;;;108.70;45.40;;;;;;;0.35;80.72;100081.16;258176;1110;23089;-73
2021/03/03 05:46:42;;;;;;;101.70;45.87;;;;;;;0.36;80.45;100074.86;258428;1110;23250;-72
2021/03/03 05:51:46;;;;;;;98.20;42.70;;;;;;;0.38;79.84;100067.59;258240;1112;23124;-73
2021/03/03 05:56:49;;;;;;;95.40;42.57;;;;;;;0.40;80.24;100070.05;258928;1110;23123;-71
2021/03/03 06:01:51;;;;;;;93.37;42.50;;;;;;;0.46;80.94;100062.20;258444;1112;23081;-72
2021/03/03 06:06:59;;;;;;;151.50;67.13;;;;;;;0.52;80.85;100065.89;258385;1110;23162;-73
2021/03/03 06:12:01;;;;;;;119.83;56.57;;;;;;;0.59;80.10;100056.20;258311;1110;23156;-72
2021/03/03 06:17:03;;;;;;;82.70;37.80;;;;;;;0.63;80.68;100065.37;258186;1110;26463;-72
2021/03/03 06:22:26;;;;;;;99.17;44.97;;;;;;;0.66;80.63;100059.70;258252;1111;23062;-73
2021/03/03 06:27:38;;;;;;;96.70;45.70;;;;;;;0.80;80.63;100052.70;258262;1112;23258;-72
2021/03/03 06:32:57;;;;;;;108.93;47.20;;;;;;;0.94;81.34;100055.44;258340;1111;23081;-72
2021/03/03 06:38:00;;;;;;;102.80;42.87;;;;;;;1.13;80.72;100052.08;258246;1111;23631;-72
2021/03/03 06:43:27;;;;;;;97.73;45.07;;;;;;;1.35;81.04;100052.80;258558;1112;23321;-71
2021/03/03 06:48:43;;;;;;;98.73;44.60;;;;;;;1.60;80.82;100060.22;258819;1110;23028;-73
2021/03/03 06:53:46;;;;;;;106.73;48.37;;;;;;;1.76;80.21;100059.05;259383;1109;26083;-72
2021/03/03 06:58:48;;;;;;;112.43;48.20;;;;;;;1.94;81.08;100045.27;261919;1108;23123;-69
2021/03/03 07:03:50;;;;;;;101.40;45.60;;;;;;;2.17;80.90;100039.63;259131;1109;24225;-69
2021/03/03 07:12:04;;;;;;;87.40;40.60;;;;;;;2.61;80.66;100029.45;259436;1109;22996;-72
2021/03/03 07:17:13;;;;;;;93.03;43.80;;;;;;;2.85;80.41;100030.63;258847;1112;23097;-72
2021/03/03 07:22:25;;;;;;;95.57;46.47;;;;;;;3.11;80.16;100028.16;258903;1110;23164;-72
2021/03/03 07:27:28;;;;;;;88.73;41.87;;;;;;;3.41;80.32;100023.14;258902;1110;23081;-72
2021/03/03 07:32:30;;;;;;;83.87;41.63;;;;;;;3.71;80.19;100026.06;259146;1111;22989;-72
2021/03/03 07:37:35;;;;;;;71.10;37.73;;;;;;;3.99;79.90;100035.48;258684;1112;23010;-72
2021/03/03 07:42:39;;;;;;;78.67;40.00;;;;;;;4.20;79.77;100023.72;258924;1112;22999;-72
2021/03/03 07:47:42;;;;;;;75.10;37.90;;;;;;;4.44;79.93;100035.36;259025;1111;23065;-72
2021/03/03 07:52:47;;;;;;;76.27;38.50;;;;;;;4.66;79.16;100029.67;259108;1112;23219;-73
2021/03/03 07:57:52;;;;;;;74.53;37.87;;;;;;;4.89;78.99;100020.27;259514;1111;23190;-73
2021/03/03 08:02:55;;;;;;;74.60;38.47;;;;;;;5.11;78.44;100024.11;259231;1111;23132;-72
2021/03/03 08:08:13;;;;;;;82.20;40.37;;;;;;;5.36;78.20;100017.07;258761;1111;23158;-73
2021/03/03 08:13:33;;;;;;;76.27;38.27;;;;;;;5.60;78.31;100016.16;258573;1111;23169;-72
2021/03/03 08:18:48;;;;;;;71.53;36.58;;;;;;;5.82;77.52;100013.81;258826;1111;23025;-72
2021/03/03 08:23:50;;;;;;;89.10;42.47;;;;;;;6.04;77.59;100000.02;258505;1111;24632;-72
2021/03/03 08:28:54;;;;;;;85.23;42.63;;;;;;;6.28;76.86;99997.40;258395;1112;23209;-73
2021/03/03 08:33:58;;;;;;;82.57;40.93;;;;;;;6.52;77.02;99984.94;258650;1111;28996;-73
2021/03/03 08:39:01;;;;;;;71.17;37.83;;;;;;;6.80;76.47;99991.38;258825;1112;23093;-72
2021/03/03 08:44:12;;;;;;;76.13;38.07;;;;;;;7.06;76.35;99983.94;258976;1111;23010;-72
2021/03/03 08:49:14;;;;;;;73.35;37.05;;;;;;;7.33;76.43;99981.53;258362;1112;23083;-72
2021/03/03 08:54:19;;;;;;;75.93;39.23;;;;;;;7.58;76.21;99983.88;258668;1111;24655;-73
2021/03/03 08:59:36;;;;;;;70.80;35.63;;;;;;;7.85;75.61;99984.11;259518;1109;23001;-72
2021/03/03 09:04:43;;;;;;;73.50;35.90;;;;;;;8.10;75.20;99972.25;259099;1109;23223;-72
2021/03/03 09:10:06;;;;;;;62.73;31.87;;;;;;;8.41;74.99;99980.73;259758;1108;23467;-72
2021/03/03 09:15:14;;;;;;;56.37;31.57;;;;;;;8.69;74.41;99976.36;258958;1109;23037;-72
2021/03/03 09:20:18;;;;;;;61.70;32.50;;;;;;;8.99;74.54;99975.93;259124;1108;23018;-72
2021/03/03 09:25:22;;;;;;;48.93;26.20;;;;;;;9.25;73.54;99962.89;258919;1109;23053;-72
2021/03/03 09:30:36;;;;;;;51.40;27.27;;;;;;;9.50;73.35;99972.23;259486;1109;23024;-73
2021/03/03 09:35:42;;;;;;;40.83;23.93;;;;;;;9.73;72.94;99963.91;259490;1109;23248;-71
2021/03/03 09:40:45;;;;;;;44.10;22.70;;;;;;;9.95;71.61;99963.04;259596;1108;23026;-72
2021/03/03 09:45:54;;;;;;;44.73;23.17;;;;;;;10.25;71.97;99953.63;260392;1108;23166;-72
2021/03/03 09:50:58;;;;;;;47.73;23.80;;;;;;;10.54;71.06;99942.59;260002;1109;23044;-72
2021/03/03 09:56:00;;;;;;;42.80;24.17;;;;;;;10.81;71.07;99937.09;258989;1109;23096;-71
2021/03/03 10:01:02;;;;;;;39.40;22.27;;;;;;;11.06;70.56;99938.28;259066;1109;23011;-72
2021/03/03 10:06:04;;;;;;;41.10;23.00;;;;;;;11.26;70.14;99941.03;259575;1108;23057;-73
2021/03/03 10:11:07;;;;;;;40.37;22.20;;;;;;;11.45;69.03;99925.23;259148;1109;23071;-73
2021/03/03 10:16:19;;;;;;;29.10;16.57;;;;;;;11.65;68.34;99926.33;259110;1109;23135;-72
2021/03/03 10:21:21;;;;;;;30.53;18.27;;;;;;;11.85;67.62;99917.50;259291;1109;22866;-71
2021/03/03 10:26:40;;;;;;;28.00;15.17;;;;;;;12.01;66.21;99917.53;259187;1108;23025;-72
2021/03/03 10:31:42;;;;;;;28.07;16.77;;;;;;;12.23;66.62;99912.66;260261;1108;23361;-72
2021/03/03 10:36:44;;;;;;;27.40;16.20;;;;;;;12.44;65.98;99905.36;259464;1109;23064;-72
2021/03/03 10:41:46;;;;;;;24.63;13.73;;;;;;;12.60;63.80;99892.67;259027;1109;23050;-73
2021/03/03 10:46:48;;;;;;;23.63;13.70;;;;;;;12.77;63.47;99889.67;259595;1108;23077;-72
2021/03/03 10:51:51;;;;;;;21.80;13.35;;;;;;;12.95;62.87;99877.46;259106;1109;23077;-72
2021/03/03 10:57:04;;;;;;;17.60;10.30;;;;;;;13.18;61.12;99861.76;259360;1108;23084;-72
2021/03/03 11:02:07;;;;;;;20.25;11.85;;;;;;;13.34;59.65;99859.75;259779;1108;24638;-72
2021/03/03 11:07:15;;;;;;;16.87;10.20;;;;;;;13.54;59.32;99848.05;259413;1107;23236;-72
2021/03/03 11:12:25;;;;;;;21.90;10.33;;;;;;;13.68;56.74;99842.83;259287;1109;23097;-71
2021/03/03 11:17:27;;;;;;;15.93;9.58;;;;;;;13.84;56.77;99830.04;259040;1109;26443;-72
2021/03/03 11:22:29;;;;;;;19.00;11.20;;;;;;;14.00;56.39;99819.91;258855;1109;22998;-71
2021/03/03 11:27:32;;;;;;;15.50;9.27;;;;;;;14.12;53.59;99814.93;259188;1108;23232;-72
2021/03/03 11:32:35;;;;;;;14.53;8.57;;;;;;;14.27;53.10;99813.14;259411;1109;23103;-71
2021/03/03 11:37:37;;;;;;;12.27;7.33;;;;;;;14.39;49.93;99802.77;259344;1108;23191;-72
2021/03/03 11:42:39;;;;;;;11.33;6.70;;;;;;;14.51;47.73;99797.77;259172;1107;23458;-72
2021/03/03 11:47:42;;;;;;;9.30;6.30;;;;;;;14.60;45.41;99797.91;259322;1109;22975;-72
2021/03/03 11:52:44;;;;;;;11.73;7.20;;;;;;;14.61;46.66;99780.64;259354;1108;23084;-74
2021/03/03 11:57:47;;;;;;;9.55;6.00;;;;;;;14.74;44.41;99767.56;258959;1108;23504;-71
2021/03/03 12:02:49;;;;;;;13.15;7.70;;;;;;;14.92;47.78;99761.36;259068;1109;23015;-72
2021/03/03 12:07:51;;;;;;;14.15;7.15;;;;;;;15.04;46.71;99750.13;259052;1109;26070;-72
2021/03/03 12:12:53;;;;;;;15.15;7.75;;;;;;;15.16;47.94;99746.96;259299;1107;23148;-72
2021/03/03 12:17:55;;;;;;;11.10;5.75;;;;;;;15.16;43.66;99726.16;259216;1108;23025;-71
2021/03/03 12:23:06;;;;;;;9.07;5.83;;;;;;;15.18;43.98;99726.69;259299;1109;23896;-72
2021/03/03 12:28:09;;;;;;;9.10;5.15;;;;;;;15.21;43.36;99722.59;258942;1109;22946;-71
2021/03/03 12:33:11;;;;;;;9.20;4.57;;;;;;;15.26;42.85;99708.99;259054;1109;23294;-73
2021/03/03 12:38:13;;;;;;;9.30;5.45;;;;;;;15.37;42.32;99709.63;259198;1109;27879;-71
2021/03/03 12:43:15;;;;;;;9.85;5.00;;;;;;;15.48;42.40;99692.14;259000;1109;23007;-72
2021/03/03 12:48:17;;;;;;;6.73;4.63;;;;;;;15.50;42.09;99687.26;258986;1109;23010;-71
2021/03/03 12:53:20;;;;;;;9.30;4.55;;;;;;;15.54;41.96;99682.86;259426;1108;23053;-72
2021/03/03 12:58:22;;;;;;;7.80;4.80;;;;;;;15.59;42.69;99673.06;259309;1108;23491;-71
2021/03/03 13:03:24;;;;;;;8.30;4.70;;;;;;;15.63;37.53;99663.27;258874;1107;23079;-73
2021/03/03 13:08:27;;;;;;;7.93;4.13;;;;;;;15.72;41.15;99661.45;259312;1108;23017;-72
2021/03/03 13:13:30;;;;;;;6.23;4.37;;;;;;;15.83;41.04;99654.77;259336;1108;26214;-72
2021/03/03 13:18:36;;;;;;;7.53;4.40;;;;;;;15.88;38.03;99649.27;259143;1109;23090;-72
2021/03/03 13:23:41;;;;;;;10.15;4.65;;;;;;;15.86;39.19;99637.94;259759;1108;23024;-73
2021/03/03 13:28:43;;;;;;;9.47;4.80;;;;;;;15.87;38.09;99634.14;259862;1108;23014;-72
2021/03/03 13:33:45;;;;;;;9.97;6.57;;;;;;;15.85;39.54;99622.03;259644;1107;23190;-72
2021/03/03 13:38:48;;;;;;;7.90;5.40;;;;;;;15.76;38.63;99615.73;263938;1109;27801;-71
2021/03/03 13:43:51;;;;;;;9.45;5.65;;;;;;;15.70;38.98;99609.64;259398;1109;23199;-71
2021/03/03 13:48:53;;;;;;;9.90;6.10;;;;;;;15.64;39.06;99603.55;259402;1109;23024;-72
2021/03/03 13:53:55;;;;;;;10.70;6.70;;;;;;;15.63;39.69;99603.85;259215;1106;22997;-72
2021/03/03 13:58:57;;;;;;;7.30;5.47;;;;;;;15.63;40.32;99598.45;259190;1109;23222;-71
2021/03/03 14:03:59;;;;;;;7.60;5.55;;;;;;;15.55;40.85;99575.64;259448;1108;23456;-72
2021/03/03 14:09:03;;;;;;;7.97;5.77;;;;;;;15.50;40.57;99579.25;259303;1107;23613;-71
2021/03/03 14:14:06;;;;;;;10.40;6.80;;;;;;;15.43;40.56;99573.46;259696;1108;25149;-71
2021/03/03 14:19:08;;;;;;;9.70;6.00;;;;;;;15.33;40.69;99563.66;259363;1109;23271;-72
2021/03/03 14:24:11;;;;;;;10.60;6.30;;;;;;;15.27;40.21;99553.27;259963;1109;26409;-72
2021/03/03 14:29:13;;;;;;;11.63;6.90;;;;;;;15.18;41.77;99547.74;259596;1109;23222;-72
2021/03/03 14:34:15;;;;;;;6.87;5.03;;;;;;;15.12;41.34;99548.95;259419;1108;23272;-71
2021/03/03 14:39:17;;;;;;;13.05;7.55;;;;;;;15.05;40.46;99541.25;259385;1107;23029;-71
2021/03/03 14:44:20;;;;;;;8.30;5.65;;;;;;;15.02;41.68;99537.25;259340;1109;23079;-72
2021/03/03 14:49:23;;;;;;;6.65;4.90;;;;;;;14.95;39.27;99530.66;259587;1109;23004;-72
2021/03/03 14:54:25;;;;;;;10.75;5.40;;;;;;;14.86;38.86;99525.95;259673;1108;24007;-71
2021/03/03 14:59:27;;;;;;;7.47;4.70;;;;;;;14.78;39.96;99523.95;259259;1109;23021;-73
2021/03/03 15:04:29;;;;;;;11.87;7.20;;;;;;;14.63;39.82;99508.84;259980;1108;24025;-73
2021/03/03 15:09:31;;;;;;;16.37;8.63;;;;;;;14.49;41.03;99510.68;259658;1108;23238;-72
2021/03/03 15:14:33;;;;;;;9.80;6.30;;;;;;;14.32;40.99;99495.07;258920;1109;23235;-73
2021/03/03 15:19:35;;;;;;;13.77;7.33;;;;;;;14.17;41.81;99486.16;259049;1108;23036;-72
2021/03/03 15:24:37;;;;;;;14.27;9.33;;;;;;;13.97;38.80;99491.86;258815;1109;23408;-73
2021/03/03 15:29:39;;;;;;;15.30;9.50;;;;;;;13.76;41.02;99483.29;258671;1109;23089;-72
2021/03/03 15:34:41;;;;;;;15.57;9.93;;;;;;;13.46;41.29;99480.73;258809;1108;24404;-72
2021/03/03 15:39:43;;;;;;;13.15;8.00;;;;;;;13.20;41.03;99469.47;258720;1109;23231;-73
2021/03/03 15:44:46;;;;;;;22.57;14.00;;;;;;;12.93;40.88;99470.88;259132;1108;23232;-72
2021/03/03 15:49:48;;;;;;;31.60;17.15;;;;;;;12.72;40.89;99464.92;259044;1109;23098;-73
2021/03/03 15:54:50;;;;;;;16.13;9.43;;;;;;;12.54;39.27;99463.77;259214;1109;23025;-72
2021/03/03 15:59:52;;;;;;;13.40;8.45;;;;;;;12.39;38.62;99458.54;258778;1109;23166;-73
2021/03/03 16:04:54;;;;;;;16.30;8.25;;;;;;;12.21;38.76;99460.83;259112;1108;23355;-72
2021/03/03 16:09:56;;;;;;;16.17;8.57;;;;;;;12.00;38.90;99457.52;258778;1109;23104;-72
2021/03/03 16:14:59;;;;;;;17.97;8.23;;;;;;;11.85;38.89;99446.87;259243;1108;23810;-73
2021/03/03 16:20:01;;;;;;;14.70;8.40;;;;;;;11.64;38.30;99441.66;258989;1109;26437;-72
2021/03/03 16:25:07;;;;;;;18.70;8.93;;;;;;;11.45;38.91;99439.61;258779;1107;23232;-72
2021/03/03 16:30:10;;;;;;;16.00;8.40;;;;;;;11.28;37.86;99431.14;259035;1109;23089;-73
2021/03/03 16:35:14;;;;;;;20.40;9.60;;;;;;;11.15;37.85;99437.92;258912;1108;23023;-73
2021/03/03 16:40:17;;;;;;;16.65;10.20;;;;;;;10.99;38.08;99439.85;258852;1109;23138;-73
2021/03/03 16:45:37;;;;;;;15.90;8.70;;;;;;;10.75;38.21;99435.11;258913;1109;23204;-73
2021/03/03 16:50:39;;;;;;;20.23;9.30;;;;;;;10.57;38.71;99436.50;258614;1108;23067;-72
2021/03/03 16:55:42;;;;;;;14.60;8.13;;;;;;;10.31;39.13;99422.34;258768;1109;23083;-73
2021/03/03 17:00:44;;;;;;;15.70;8.45;;;;;;;10.16;40.08;99422.37;258848;1109;23013;-72
2021/03/03 17:05:48;;;;;;;15.57;7.60;;;;;;;9.96;40.19;99426.66;258971;1109;23344;-72
2021/03/03 17:10:51;;;;;;;12.43;7.30;;;;;;;9.84;40.49;99423.45;258894;1108;23017;-73
2021/03/03 17:15:53;;;;;;;10.57;6.40;;;;;;;9.81;39.78;99422.09;258720;1109;23065;-72
2021/03/03 17:20:56;;;;;;;17.00;8.40;;;;;;;9.71;41.05;99409.52;258691;1109;23076;-72
2021/03/03 17:25:58;;;;;;;17.15;9.20;;;;;;;9.60;41.28;99421.28;258814;1108;23086;-72
2021/03/03 17:31:00;;;;;;;19.77;10.40;;;;;;;9.47;41.62;99419.11;258760;1109;23020;-73
2021/03/03 17:36:03;;;;;;;23.10;11.27;;;;;;;9.35;42.29;99412.14;258944;1108;23030;-72
2021/03/03 17:41:05;;;;;;;18.43;11.07;;;;;;;9.33;42.28;99419.64;258731;1108;23077;-73
2021/03/03 17:46:08;;;;;;;18.30;11.07;;;;;;;9.39;42.98;99418.56;258639;1109;23052;-73
2021/03/03 17:51:11;;;;;;;23.60;13.30;;;;;;;9.35;43.95;99412.14;258835;1109;23084;-73
2021/03/03 17:56:13;;;;;;;22.13;11.97;;;;;;;9.25;44.75;99396.88;258647;1109;23094;-73
2021/03/03 18:01:15;;;;;;;26.73;15.50;;;;;;;9.10;45.24;99401.39;258742;1109;22997;-72
2021/03/03 18:06:18;;;;;;;32.80;17.15;;;;;;;9.01;45.65;99385.87;258703;1109;23084;-73
2021/03/03 18:11:20;;;;;;;30.35;16.40;;;;;;;8.96;46.56;99377.03;258716;1109;23168;-71
2021/03/03 18:16:23;;;;;;;29.87;17.17;;;;;;;8.96;47.19;99372.48;258676;1109;23015;-72
2021/03/03 18:21:26;;;;;;;32.63;16.90;;;;;;;8.89;47.94;99371.92;258653;1108;23062;-71
2021/03/03 18:26:29;;;;;;;28.43;15.90;;;;;;;8.86;48.39;99361.77;258744;1109;23073;-72
2021/03/03 18:31:32;;;;;;;28.77;16.43;;;;;;;8.85;48.47;99365.50;258765;1108;23086;-72
2021/03/03 18:36:36;;;;;;;32.33;17.40;;;;;;;8.81;49.42;99361.74;258747;1109;22994;-72
2021/03/03 18:41:38;;;;;;;32.53;16.77;;;;;;;8.83;49.95;99362.30;258797;1109;23030;-71
2021/03/03 18:46:45;;;;;;;32.67;18.07;;;;;;;8.78;50.04;99351.59;258732;1109;23008;-72
2021/03/03 18:51:49;;;;;;;34.83;17.57;;;;;;;8.73;50.56;99345.16;258891;1109;23100;-72
2021/03/03 18:56:51;;;;;;;36.13;18.90;;;;;;;8.65;51.02;99342.99;258582;1109;23044;-73
2021/03/03 19:01:53;;;;;;;31.97;17.97;;;;;;;8.54;51.33;99342.14;258660;1109;23195;-73
2021/03/03 19:06:55;;;;;;;35.97;18.37;;;;;;;8.44;52.35;99338.61;258771;1109;23045;-72
2021/03/03 19:11:58;;;;;;;33.67;17.83;;;;;;;8.35;52.49;99341.77;258731;1109;23042;-71
2021/03/03 19:17:01;;;;;;;34.50;18.83;;;;;;;8.23;53.68;99333.95;258772;1109;23158;-72
2021/03/03 19:22:04;;;;;;;33.90;18.25;;;;;;;8.15;53.59;99315.76;258862;1109;23442;-73
2021/03/03 19:27:07;;;;;;;32.63;17.77;;;;;;;8.07;54.00;99307.45;258653;1109;23076;-71
2021/03/03 19:32:10;;;;;;;37.37;19.93;;;;;;;8.00;55.00;99311.16;259134;1109;23122;-72
2021/03/03 19:37:13;;;;;;;32.40;17.70;;;;;;;7.98;55.96;99302.59;258731;1109;23024;-71
2021/03/03 19:42:16;;;;;;;40.87;20.27;;;;;;;7.93;56.53;99301.77;258765;1109;23080;-73
2021/03/03 19:47:19;;;;;;;34.65;20.15;;;;;;;7.87;57.21;99303.59;259059;1109;23146;-72
2021/03/03 19:52:22;;;;;;;41.80;21.43;;;;;;;7.77;58.97;99304.33;258723;1109;23037;-72
2021/03/03 19:57:24;;;;;;;42.33;20.73;;;;;;;7.68;58.51;99308.52;258864;1109;23190;-71
2021/03/03 20:02:27;;;;;;;42.90;23.80;;;;;;;7.60;58.88;99301.81;259335;1109;23187;-72
2021/03/03 20:07:29;;;;;;;41.63;20.53;;;;;;;7.54;59.81;99300.98;258745;1109;23077;-73
2021/03/03 20:12:31;;;;;;;42.40;22.73;;;;;;;7.44;59.63;99300.09;258748;1107;23461;-72
2021/03/03 20:17:33;;;;;;;39.73;21.77;;;;;;;7.35;60.11;99299.76;258686;1109;22972;-72
2021/03/03 20:22:35;;;;;;;35.67;21.17;;;;;;;7.27;60.10;99302.88;259019;1108;23010;-73
2021/03/03 20:27:38;;;;;;;35.77;20.17;;;;;;;7.21;60.41;99299.37;258783;1109;23090;-73
2021/03/03 20:32:40;;;;;;;33.03;19.53;;;;;;;7.14;60.71;99293.45;258685;1107;23094;-72
2021/03/03 20:37:43;;;;;;;29.65;15.30;;;;;;;7.07;61.10;99288.31;258843;1109;23354;-71
2021/03/03 20:42:47;;;;;;;35.33;18.37;;;;;;;7.03;61.51;99297.87;258753;1109;23083;-73
2021/03/03 20:47:49;;;;;;;39.27;20.93;;;;;;;6.99;61.39;99283.44;258686;1109;24774;-71
2021/03/03 20:52:51;;;;;;;35.70;19.50;;;;;;;6.91;61.87;99291.88;259111;1108;23225;-72
2021/03/03 20:57:54;;;;;;;36.13;20.30;;;;;;;6.84;63.40;99300.06;258993;1109;23235;-71
2021/03/03 21:02:56;;;;;;;34.30;19.30;;;;;;;6.81;62.79;99287.25;258866;1108;23023;-72
2021/03/03 21:07:59;;;;;;;37.10;19.43;;;;;;;6.76;62.91;99289.89;258715;1108;26179;-72
2021/03/03 21:13:01;;;;;;;34.47;19.43;;;;;;;6.71;63.09;99285.30;258756;1109;23024;-72
2021/03/03 21:18:04;;;;;;;35.80;17.27;;;;;;;6.66;63.37;99282.59;258645;1109;23023;-73
2021/03/03 21:23:06;;;;;;;36.13;20.47;;;;;;;6.62;63.65;99274.29;258652;1108;23094;-73
2021/03/03 21:28:08;;;;;;;40.80;21.20;;;;;;;6.55;64.27;99268.36;258777;1107;23184;-72
2021/03/03 21:33:12;;;;;;;40.13;20.97;;;;;;;6.47;65.04;99269.59;259251;1109;23057;-72
2021/03/03 21:38:15;;;;;;;43.97;22.80;;;;;;;6.45;64.47;99262.90;258638;1109;23047;-72
2021/03/03 21:43:31;;;;;;;44.70;22.63;;;;;;;6.39;65.91;99269.23;258998;1109;27310;-72
2021/03/03 21:48:33;;;;;;;45.63;23.10;;;;;;;6.33;64.69;99266.50;258706;1108;23231;-72
2021/03/03 21:53:35;;;;;;;49.87;25.90;;;;;;;6.26;65.70;99259.77;258624;1107;23110;-73
2021/03/03 21:58:38;;;;;;;40.50;21.57;;;;;;;6.15;66.64;99253.52;258730;1108;23229;-72
2021/03/03 22:03:40;;;;;;;43.70;24.23;;;;;;;6.05;66.89;99253.39;258925;1108;23077;-72
2021/03/03 22:08:43;;;;;;;45.57;24.73;;;;;;;5.93;66.90;99248.97;258752;1109;23094;-72
2021/03/03 22:13:45;;;;;;;43.20;23.37;;;;;;;5.81;67.69;99240.29;259041;1109;23110;-72
2021/03/03 22:18:49;;;;;;;40.45;23.45;;;;;;;5.72;68.77;99234.59;258695;1109;26405;-71
2021/03/03 22:23:51;;;;;;;46.75;25.40;;;;;;;5.61;67.93;99236.30;258655;1109;26389;-71
2021/03/03 22:28:53;;;;;;;48.97;24.93;;;;;;;5.47;68.52;99229.69;258561;1109;23458;-72
2021/03/03 22:33:56;;;;;;;53.00;27.30;;;;;;;5.35;68.77;99227.14;258736;1109;23658;-72
2021/03/03 22:38:58;;;;;;;46.80;24.30;;;;;;;5.24;69.70;99228.83;258691;1109;23024;-72
2021/03/03 22:44:00;;;;;;;46.85;25.15;;;;;;;5.16;69.95;99225.77;258741;1108;23074;-72
2021/03/03 22:49:09;;;;;;;46.23;25.77;;;;;;;5.05;70.02;99216.83;258803;1108;23095;-71
2021/03/03 22:54:12;;;;;;;47.30;25.27;;;;;;;4.92;70.01;99209.98;258748;1108;23239;-72
2021/03/03 22:59:14;;;;;;;50.75;25.80;;;;;;;4.79;69.81;99205.80;258661;1108;22991;-72
2021/03/03 23:04:18;;;;;;;47.97;25.57;;;;;;;4.66;70.00;99206.08;259007;1108;23090;-72
2021/03/03 23:09:21;;;;;;;56.27;29.23;;;;;;;4.57;70.23;99205.67;258841;1109;23010;-72